^^
B2 Weather Station Historical Data
Daily Summary for June 14, 2019 Units:  English    Metric   Both
Daily Weekly Monthly Yearly Custom
  High: Low: Average:
Temperature: 80.3 °F 47.3 °F 65.7 °F
Dew Point: 57.1 °F 43.3 °F 49.9 °F
Humidity: 87% 30% 60%
Wind Speed: 23mph 0mph 8.8mph
Wind Gust: 13.1mph - -
Wind- - SSW
Pressure: 30.07 in 29.86 in -
Precipitation: 0.02 in    
Historical Graphs
 
 
Tabular Data for June 14, 2019
Time Temperature Dew Point Pressure Wind Wind Speed Wind Gust Humidity Rainfall Rate (Hourly) solar
00:04 55.7 °F 45.7 °F 30.03 in West 2.3 mph 1.6 mph 69% 0 in 0.00 W/m2
00:09 55.7 °F 45.7 °F 30.03 in West 3.5 mph 1.3 mph 69% 0 in 0.00 W/m2
00:14 55.7 °F 45.7 °F 30.03 in West 2.3 mph 0.9 mph 69% 0 in 0.00 W/m2
00:19 55.7 °F 45.7 °F 30.03 in West 2.3 mph 1.5 mph 69% 0 in 0.00 W/m2
00:24 55.7 °F 45.7 °F 30.03 in West 2.3 mph 0.5 mph 69% 0 in 0.00 W/m2
00:29 55.7 °F 45.3 °F 30.02 in Calm     68% 0 in 0.00 W/m2
00:34 55.6 °F 45.2 °F 30.03 in Calm     68% 0 in 0.00 W/m2
00:39 55.5 °F 45.1 °F 30.03 in West 2.3 mph 0.2 mph 68% 0 in 0.00 W/m2
00:44 55.3 °F 44.9 °F 30.03 in West 2 mph 0.3 mph 68% 0 in 0.00 W/m2
00:49 55.2 °F 45.2 °F 30.03 in West 2.3 mph   69% 0 in 0.00 W/m2
00:54 55 °F 45 °F 30.03 in West 2.3 mph 1.7 mph 69% 0 in 0.00 W/m2
00:59 54.9 °F 44.9 °F 30.03 in West 3 mph 1.1 mph 69% 0 in 0.00 W/m2
01:04 54.8 °F 45.2 °F 30.03 in West 3.5 mph 1.2 mph 70% 0 in 0.00 W/m2
01:09 54.7 °F 45.5 °F 30.03 in WSW 3.5 mph 1.7 mph 71% 0 in 0.00 W/m2
01:14 54.7 °F 45.5 °F 30.03 in WSW 2.3 mph 0.7 mph 71% 0 in 0.00 W/m2
01:19 54.7 °F 45.5 °F 30.03 in WSW 3.5 mph 0.7 mph 71% 0 in 0.00 W/m2
01:24 54.5 °F 45.3 °F 30.03 in WSW 1.2 mph 0.1 mph 71% 0 in 0.00 W/m2
01:29 54.2 °F 45.4 °F 30.03 in WSW 3.5 mph 2 mph 72% 0 in 0.00 W/m2
01:34 54.1 °F 45.3 °F 30.03 in WSW 3.5 mph 0.2 mph 72% 0 in 0.00 W/m2
01:39 54 °F 45.2 °F 30.03 in Calm     72% 0 in 0.00 W/m2
01:44 53.7 °F 45.2 °F 30.04 in WSW 1.2 mph   73% 0 in 0.00 W/m2
01:49 53.2 °F 44.8 °F 30.03 in WSW 3.5 mph 0.8 mph 73% 0 in 0.00 W/m2
01:54 53 °F 44.9 °F 30.04 in WSW 2.3 mph 1.4 mph 74% 0 in 0.00 W/m2
01:59 53 °F 44.9 °F 30.04 in West 5 mph 1.4 mph 74% 0 in 0.00 W/m2
02:04 53.2 °F 44.8 °F 30.04 in SW 3.5 mph 2.1 mph 73% 0 in 0.00 W/m2
02:09 53.3 °F 44.9 °F 30.04 in WSW 4 mph 1.3 mph 73% 0 in 0.00 W/m2
02:14 53.4 °F 45 °F 30.04 in SW 3.5 mph 1.6 mph 73% 0 in 0.00 W/m2
02:19 53.4 °F 45 °F 30.04 in SW 4.6 mph 2.5 mph 73% 0 in 0.00 W/m2
02:24 53.5 °F 44.7 °F 30.04 in SSW 2.3 mph 0.6 mph 72% 0 in 0.00 W/m2
02:29 53.4 °F 44.6 °F 30.04 in SW 3.5 mph 0.7 mph 72% 0 in 0.00 W/m2
02:34 53.2 °F 44.8 °F 30.04 in SW 2.3 mph 0.8 mph 73% 0 in 0.00 W/m2
02:39 52.9 °F 44.5 °F 30.04 in Calm   0.1 mph 73% 0 in 0.00 W/m2
02:44 52.6 °F 44.2 °F 30.03 in SSW 1.2 mph 0.1 mph 73% 0 in 0.00 W/m2
02:49 52.4 °F 44 °F 30.03 in SSW 2.3 mph 0.4 mph 73% 0 in 0.00 W/m2
02:54 52.2 °F 43.8 °F 30.03 in SSW 2.3 mph 0.3 mph 73% 0 in 0.00 W/m2
02:59 52 °F 43.6 °F 30.03 in SSW 2.3 mph 0.5 mph 73% 0 in 0.00 W/m2
03:04 51.8 °F 43.8 °F 30.04 in SW 3.5 mph 0.6 mph 74% 0 in 0.00 W/m2
03:09 51.7 °F 43.7 °F 30.04 in SW 1.2 mph 0.6 mph 74% 0 in 0.00 W/m2
03:14 51.6 °F 43.6 °F 30.04 in SW 3.5 mph   74% 0 in 0.00 W/m2
03:19 51.7 °F 43.7 °F 30.04 in SSW 3.5 mph 1.8 mph 74% 0 in 0.00 W/m2
03:24 51.8 °F 43.8 °F 30.04 in SW 3.5 mph 1 mph 74% 0 in 0.00 W/m2
03:29 51.8 °F 43.8 °F 30.04 in SW 1.2 mph 0.3 mph 74% 0 in 0.00 W/m2
03:34 51.6 °F 43.6 °F 30.04 in SW 1.2 mph   74% 0 in 0.00 W/m2
03:39 51.4 °F 43.7 °F 30.04 in Calm     75% 0 in 0.00 W/m2
03:44 51.2 °F 43.5 °F 30.04 in SW 2.3 mph   75% 0 in 0.00 W/m2
03:49 50.9 °F 43.6 °F 30.04 in SW 1.2 mph   76% 0 in 0.00 W/m2
03:54 50.7 °F 43.4 °F 30.04 in SW 2.3 mph 0.3 mph 76% 0 in 0.00 W/m2
03:59 50.4 °F 43.5 °F 30.05 in Calm     77% 0 in 0.00 W/m2
04:04 50.1 °F 43.5 °F 30.04 in Calm     78% 0 in 0.00 W/m2
04:09 49.7 °F 43.5 °F 30.04 in Calm     79% 0 in 0.00 W/m2
04:14 49.4 °F 43.5 °F 30.04 in Calm     80% 0 in 0.00 W/m2
04:19 48.9 °F 43.3 °F 30.04 in Calm     81% 0 in 0.00 W/m2
04:24 48.7 °F 43.5 °F 30.04 in SW 2 mph 0.5 mph 82% 0 in 0.00 W/m2
04:29 48.5 °F 43.6 °F 30.04 in SW 1.2 mph   83% 0 in 0.00 W/m2
04:34 48.4 °F 43.5 °F 30.04 in Calm     83% 0 in 0.00 W/m2
04:39 48.2 °F 43.6 °F 30.05 in Calm     84% 0 in 0.00 W/m2
04:44 48 °F 43.4 °F 30.05 in Calm     84% 0 in 0.00 W/m2
04:49 47.7 °F 43.4 °F 30.05 in Calm     85% 0 in 0.00 W/m2
04:54 47.6 °F 43.3 °F 30.05 in Calm     85% 0 in 0.00 W/m2
04:59 47.5 °F 43.5 °F 30.05 in Calm     86% 0 in 0.00 W/m2
05:04 47.3 °F 43.3 °F 30.05 in SW 2.3 mph 0.6 mph 86% 0 in 0.00 W/m2
05:09 47.4 °F 43.4 °F 30.05 in Calm     86% 0 in 0.00 W/m2
05:14 47.4 °F 43.4 °F 30.05 in SW 1.2 mph 0.3 mph 86% 0 in 0.00 W/m2
05:19 47.4 °F 43.4 °F 30.05 in SW 1.2 mph 0.1 mph 86% 0 in 0.00 W/m2
05:24 47.7 °F 44 °F 30.05 in SSW 3.5 mph 1.9 mph 87% 0 in 5.00 W/m2
05:29 48 °F 44 °F 30.05 in SSW 3.5 mph 1.1 mph 86% 0 in 7.00 W/m2
05:34 48.2 °F 43.9 °F 30.06 in SSW 1.2 mph 0.5 mph 85% 0 in 11.00 W/m2
05:39 48.5 °F 44.2 °F 30.06 in SSW 2.3 mph 0.9 mph 85% 0 in 12.00 W/m2
05:44 48.7 °F 44.4 °F 30.06 in SSW 1.2 mph 0.4 mph 85% 0 in 14.00 W/m2
05:49 49 °F 44.4 °F 30.06 in SSW 1.2 mph 0.2 mph 84% 0 in 18.00 W/m2
05:54 49.4 °F 44.8 °F 30.06 in SSW 1.2 mph 1.2 mph 84% 0 in 23.00 W/m2
05:59 49.8 °F 45.2 °F 30.06 in SSW 2.3 mph 1 mph 84% 0 in 32.00 W/m2
06:04 50.3 °F 45.6 °F 30.05 in SSW 2.3 mph 1.8 mph 84% 0 in 40.00 W/m2
06:09 50.7 °F 45.7 °F 30.05 in SSW 3.5 mph 1 mph 83% 0 in 51.00 W/m2
06:14 51.1 °F 46.1 °F 30.05 in SSW 3.5 mph 1.5 mph 83% 0 in 63.00 W/m2
06:19 51.4 °F 46.4 °F 30.05 in Calm     83% 0 in 79.00 W/m2
06:24 51.8 °F 47.1 °F 30.05 in Calm     84% 0 in 95.00 W/m2
06:29 52.3 °F 47.3 °F 30.05 in Calm     83% 0 in 113.00 W/m2
06:34 52.8 °F 47.1 °F 30.06 in Calm     81% 0 in 128.00 W/m2
06:39 53.5 °F 47.5 °F 30.06 in Calm     80% 0 in 148.00 W/m2
06:44 54.1 °F 47.4 °F 30.06 in Calm     78% 0 in 163.00 W/m2
06:49 54.8 °F 47.4 °F 30.06 in Calm     76% 0 in 183.00 W/m2
06:54 55.5 °F 48.1 °F 30.06 in Calm     76% 0 in 202.00 W/m2
06:59 56.1 °F 48.3 °F 30.06 in Calm     75% 0 in 221.00 W/m2
07:04 56.7 °F 48.1 °F 30.06 in Calm     73% 0 in 241.00 W/m2
07:09 57.4 °F 48.8 °F 30.06 in Calm   0.2 mph 73% 0 in 257.00 W/m2
07:14 58 °F 48.6 °F 30.06 in South 1.2 mph 0.5 mph 71% 0 in 272.00 W/m2
07:19 58.7 °F 48.9 °F 30.06 in SSW 3.5 mph 0.8 mph 70% 0 in 285.00 W/m2
07:24 59.4 °F 48.8 °F 30.06 in SSW 3.5 mph 1.4 mph 68% 0 in 301.00 W/m2
07:29 60 °F 49 °F 30.06 in SW 2.3 mph 1.8 mph 67% 0 in 315.00 W/m2
07:34 60.5 °F 49.1 °F 30.06 in South 3.5 mph 0.3 mph 66% 0 in 330.00 W/m2
07:39 61 °F 49.1 °F 30.06 in SSW 3.5 mph 0.4 mph 65% 0 in 346.00 W/m2
07:44 61.4 °F 49.5 °F 30.06 in SSW 3.5 mph 1.5 mph 65% 0 in 364.00 W/m2
07:49 61.8 °F 48.6 °F 30.06 in SSE 5.8 mph 0.9 mph 62% 0 in 378.00 W/m2
07:54 62.2 °F 49 °F 30.06 in SW 5.8 mph 2.4 mph 62% 0 in 390.00 W/m2
07:59 62.7 °F 49.5 °F 30.06 in SSW 6.9 mph 3.1 mph 62% 0 in 406.00 W/m2
08:04 63.1 °F 49.9 °F 30.06 in SSW 2.3 mph 0.9 mph 62% 0 in 422.00 W/m2
08:09 63.4 °F 49.3 °F 30.06 in SSW 8.1 mph 2.9 mph 60% 0 in 438.00 W/m2
08:14 63.7 °F 49.5 °F 30.07 in SSW 6.9 mph 4.9 mph 60% 0 in 452.00 W/m2
08:19 64.1 °F 49.9 °F 30.07 in SSW 11.5 mph 2.3 mph 60% 0 in 466.00 W/m2
08:24 64.4 °F 50.7 °F 30.06 in South 4.6 mph 2.8 mph 61% 0 in 483.00 W/m2
08:29 64.8 °F 50.6 °F 30.06 in SSW 8.1 mph 2.4 mph 60% 0 in 497.00 W/m2
08:34 65 °F 50.3 °F 30.06 in SSW 12.7 mph 4.7 mph 59% 0 in 501.00 W/m2
08:39 65.5 °F 51.2 °F 30.06 in SW 9.2 mph 1.8 mph 60% 0 in 461.00 W/m2
08:44 66 °F 50.8 °F 30.06 in SSW 8.1 mph 2.7 mph 58% 0 in 487.00 W/m2
08:49 66.4 °F 50.7 °F 30.05 in SSW 10.4 mph 6.9 mph 57% 0 in 473.00 W/m2
08:54 66.8 °F 51.1 °F 30.06 in South 9.2 mph 1.6 mph 57% 0 in 469.00 W/m2
08:59 67.3 °F 51.1 °F 30.06 in South 11.5 mph 3.1 mph 56% 0 in 459.00 W/m2
09:04 67.6 °F 50.9 °F 30.06 in South 18.4 mph 7.2 mph 55% 0 in 504.00 W/m2
09:09 67.7 °F 51.4 °F 30.06 in SSW 14 mph 4.3 mph 56% 0 in 543.00 W/m2
09:14 68.2 °F 52.4 °F 30.06 in SW 12 mph 5.9 mph 57% 0 in 578.00 W/m2
09:19 68.6 °F 51.8 °F 30.05 in SW 12.7 mph 5.1 mph 55% 0 in 608.00 W/m2
09:24 69 °F 51.7 °F 30.05 in South 11.5 mph 9.7 mph 54% 0 in 575.00 W/m2
09:29 69.2 °F 51.3 °F 30.05 in South 11.5 mph 5.8 mph 53% 0 in 613.00 W/m2
09:34 69.6 °F 51.7 °F 30.05 in SSW 13 mph 7.5 mph 53% 0 in 605.00 W/m2
09:39 70 °F 51 °F 30.04 in SW 16.1 mph 9.2 mph 51% 0 in 591.00 W/m2
09:44 70.3 °F 51.8 °F 30.05 in SSW 11.5 mph 5.1 mph 52% 0 in 582.00 W/m2
09:49 70.7 °F 51.1 °F 30.04 in SSW 11.5 mph 7 mph 50% 0 in 573.00 W/m2
09:54 70.9 °F 51.9 °F 30.04 in SSW 9.2 mph 6.9 mph 51% 0 in 575.00 W/m2
09:59 71.2 °F 50.5 °F 30.04 in SSW 15 mph 6.7 mph 48% 0 in 578.00 W/m2
10:04 71.4 °F 51.2 °F 30.04 in SW 12.7 mph 7 mph 49% 0 in 585.00 W/m2
10:09 71.4 °F 50.7 °F 30.04 in SSW 10 mph 8.4 mph 48% 0 in 596.00 W/m2
10:14 71.5 °F 51.9 °F 30.03 in South 12.7 mph 8.1 mph 50% 0 in 633.00 W/m2
10:19 71.9 °F 51.1 °F 30.03 in SSW 18.4 mph 8.3 mph 48% 0 in 668.00 W/m2
10:24 72.1 °F 51.3 °F 30.03 in SE 11.5 mph 4.7 mph 48% 0 in 703.00 W/m2
10:29 72.2 °F 51.4 °F 30.03 in SSW 11.5 mph 6.8 mph 48% 0 in 761.00 W/m2
10:34 72.4 °F 51 °F 30.03 in SSW 12 mph 7.2 mph 47% 0 in 795.00 W/m2
10:39 72.7 °F 51.9 °F 30.03 in South 14 mph 6.2 mph 48% 0 in 805.00 W/m2
10:44 72.8 °F 50.8 °F 30.03 in SSW 15 mph 7.1 mph 46% 0 in 821.00 W/m2
10:49 73.1 °F 51.1 °F 30.03 in SSW 10.4 mph 7.2 mph 46% 0 in 766.00 W/m2
10:54 73.4 °F 51.4 °F 30.03 in SSW 12.7 mph 7.6 mph 46% 0 in 786.00 W/m2
10:59 73.4 °F 51.9 °F 30.03 in South 11.5 mph 5.9 mph 47% 0 in 838.00 W/m2
11:04 73.8 °F 51.7 °F 30.03 in SW 12.7 mph 7.2 mph 46% 0 in 872.00 W/m2
11:09 73.8 °F 51.1 °F 30.03 in SW 17.3 mph 6.8 mph 45% 0 in 856.00 W/m2
11:14 74 °F 52.5 °F 30.03 in SSW 11.5 mph 4.2 mph 47% 0 in 860.00 W/m2
11:19 74.2 °F 50.3 °F 30.02 in SSW 10.4 mph 6.3 mph 43% 0 in 830.00 W/m2
11:24 74.3 °F 51 °F 30.02 in South 13.8 mph 7.7 mph 44% 0 in 826.00 W/m2
11:29 74.4 °F 52.3 °F 30.02 in SSW 8.1 mph 5.2 mph 46% 0 in 900.00 W/m2
11:34 74.6 °F 52.4 °F 30.01 in South 14 mph 8.6 mph 46% 0 in 891.00 W/m2
11:39 75 °F 53.4 °F 30.01 in SSE 10.4 mph 8.2 mph 47% 0 in 911.00 W/m2
11:44 74.9 °F 51.5 °F 30.01 in SSW 11.5 mph 7.1 mph 44% 0 in 856.00 W/m2
11:49 75 °F 52.8 °F 30.01 in South 11.5 mph 7.5 mph 46% 0 in 793.00 W/m2
11:54 75.3 °F 51.3 °F 30.01 in South 9.2 mph 6.4 mph 43% 0 in 972.00 W/m2
11:59 75.3 °F 51.3 °F 30.01 in SSW 15 mph 9.1 mph 43% 0 in 861.00 W/m2
12:04 75.2 °F 51.8 °F 30.00 in SSW 13.8 mph 6.5 mph 44% 0 in 967.00 W/m2
12:09 75.4 °F 52.6 °F 30.00 in SSW 11.5 mph 8.1 mph 45% 0 in 664.00 W/m2
12:14 75.9 °F 53.6 °F 30.00 in South 11.5 mph 5.7 mph 46% 0 in 874.00 W/m2
12:19 75.8 °F 52.9 °F 29.99 in SW 16 mph 7.9 mph 45% 0 in 838.00 W/m2
12:24 75.7 °F 52.2 °F 29.99 in WSW 11.5 mph 5.1 mph 44% 0 in 719.00 W/m2
12:29 75.7 °F 52.8 °F 29.99 in South 15 mph 6.6 mph 45% 0 in 810.00 W/m2
12:34 75.9 °F 53.6 °F 29.99 in South 12.7 mph 7.5 mph 46% 0 in 666.00 W/m2
12:39 75.6 °F 51.5 °F 29.99 in South 16.1 mph 7.4 mph 43% 0 in 621.00 W/m2
12:44 75.3 °F 51.9 °F 29.99 in SSW 13.8 mph 6 mph 44% 0 in 670.00 W/m2
12:49 75.5 °F 52.7 °F 29.98 in SSW 12.7 mph 8.1 mph 45% 0 in 707.00 W/m2
12:54 75.4 °F 52 °F 29.98 in SSE 15 mph 8.8 mph 44% 0 in 707.00 W/m2
12:59 75.5 °F 52.7 °F 29.98 in SSW 11.5 mph 7.9 mph 45% 0 in 879.00 W/m2
13:04 76.3 °F 54.6 °F 29.98 in SW 12 mph 5.8 mph 47% 0 in 896.00 W/m2
13:09 76.6 °F 53.7 °F 29.97 in SSW 12.7 mph 8.8 mph 45% 0 in 821.00 W/m2
13:14 76.7 °F 52.5 °F 29.97 in SSW 11.5 mph 8 mph 43% 0 in 849.00 W/m2
13:19 76.9 °F 53.9 °F 29.97 in South 11.5 mph 10.4 mph 45% 0 in 898.00 W/m2
13:24 76.8 °F 52 °F 29.97 in SSE 18.4 mph 8.5 mph 42% 0 in 722.00 W/m2
13:29 76.6 °F 51.8 °F 29.96 in SSW 17.3 mph 10.3 mph 42% 0 in 856.00 W/m2
13:34 76.9 °F 53.9 °F 29.96 in SW 11.5 mph 6 mph 45% 0 in 1020.00 W/m2
13:39 76.9 °F 52.1 °F 29.96 in South 15 mph 11.4 mph 42% 0 in 875.00 W/m2
13:44 76.9 °F 53.3 °F 29.96 in South 11.5 mph 6.8 mph 44% 0 in 765.00 W/m2
13:49 77.1 °F 53.5 °F 29.95 in SSW 10.4 mph 6.3 mph 44% 0 in 754.00 W/m2
13:54 77.5 °F 53.2 °F 29.95 in SSW 11.5 mph 4.1 mph 43% 0 in 691.00 W/m2
13:59 77.4 °F 53.1 °F 29.95 in SSE 12.7 mph 7 mph 43% 0 in 696.00 W/m2
14:04 77.4 °F 52.5 °F 29.95 in SW 19.6 mph 9.1 mph 42% 0 in 705.00 W/m2
14:09 77.1 °F 52.9 °F 29.94 in SSW 11.5 mph 7.4 mph 43% 0 in 788.00 W/m2
14:14 77.6 °F 53.3 °F 29.94 in SW 16.1 mph 8.4 mph 43% 0 in 786.00 W/m2
14:19 77.8 °F 53.5 °F 29.93 in SSW 13.8 mph 7.4 mph 43% 0 in 772.00 W/m2
14:24 77.6 °F 54 °F 29.93 in WSW 11.5 mph 7.9 mph 44% 0 in 686.00 W/m2
14:29 77.6 °F 54 °F 29.93 in SSW 15 mph 7 mph 44% 0 in 838.00 W/m2
14:34 78.4 °F 54 °F 29.92 in SSW 15 mph 7.9 mph 43% 0 in 935.00 W/m2
14:39 78.9 °F 53.2 °F 29.92 in South 13.8 mph 7.9 mph 41% 0 in 884.00 W/m2
14:44 78.9 °F 52.5 °F 29.92 in SW 17.3 mph 11.2 mph 40% 0 in 814.00 W/m2
14:49 79.1 °F 55.3 °F 29.92 in South 11.5 mph 5.6 mph 44% 0 in 905.00 W/m2
14:54 78.8 °F 52.4 °F 29.91 in SW 13.8 mph 7.1 mph 40% 0 in 332.00 W/m2
14:59 78.5 °F 52.2 °F 29.91 in South 23 mph 9.8 mph 40% 0 in 900.00 W/m2
15:04 78.7 °F 52.3 °F 29.91 in South 11.5 mph 8.7 mph 40% 0 in 846.00 W/m2
15:09 79.2 °F 53.5 °F 29.90 in South 10 mph 7.9 mph 41% 0 in 816.00 W/m2
15:14 79.3 °F 52.9 °F 29.90 in South 11 mph 9.3 mph 40% 0 in 772.00 W/m2
15:19 79.4 °F 53.6 °F 29.90 in South 11.5 mph 5.5 mph 41% 0 in 749.00 W/m2
15:24 79.4 °F 53 °F 29.90 in South 9.2 mph 5.5 mph 40% 0 in 772.00 W/m2
15:29 79.7 °F 53.2 °F 29.89 in South 16.1 mph 7.4 mph 40% 0 in 779.00 W/m2
15:34 79.8 °F 52.6 °F 29.89 in SSW 15 mph 10.1 mph 39% 0 in 708.00 W/m2
15:39 79.3 °F 51.5 °F 29.89 in SSW 18.4 mph 8.9 mph 38% 0 in 722.00 W/m2
15:44 79.3 °F 52.2 °F 29.89 in SSW 15 mph 5 mph 39% 0 in 715.00 W/m2
15:49 79.7 °F 51.8 °F 29.89 in SSE 12 mph 8.4 mph 38% 0 in 668.00 W/m2
15:54 79.7 °F 51.8 °F 29.88 in SSW 16.1 mph 7.3 mph 38% 0 in 687.00 W/m2
15:59 79.9 °F 51.3 °F 29.88 in SW 12.7 mph 7.1 mph 37% 0 in 657.00 W/m2
16:04 79.8 °F 48.1 °F 29.88 in SSW 13.8 mph 6.5 mph 33% 0 in 636.00 W/m2
16:09 79.8 °F 48.1 °F 29.88 in SSW 10.4 mph 8.5 mph 33% 0 in 680.00 W/m2
16:14 79.9 °F 48.2 °F 29.88 in WSW 12.7 mph 7.5 mph 33% 0 in 666.00 W/m2
16:19 79.9 °F 47.4 °F 29.88 in SSW 16.1 mph 7.5 mph 32% 0 in 629.00 W/m2
16:24 79.9 °F 48.2 °F 29.87 in West 12.7 mph 6.9 mph 33% 0 in 615.00 W/m2
16:29 80.1 °F 48.4 °F 29.87 in South 16.1 mph 5.7 mph 33% 0 in 580.00 W/m2
16:34 80.2 °F 46.8 °F 29.87 in SSW 15 mph 9.8 mph 31% 0 in 596.00 W/m2
16:39 80.2 °F 48.5 °F 29.87 in SW 14 mph 7.9 mph 33% 0 in 608.00 W/m2
16:44 80.3 °F 46 °F 29.87 in South 16.1 mph 7.4 mph 30% 0 in 591.00 W/m2
16:49 80.2 °F 45.9 °F 29.87 in West 12.7 mph 6.8 mph 30% 0 in 573.00 W/m2
16:54 80 °F 46.6 °F 29.87 in SSW 16.1 mph 9 mph 31% 0 in 563.00 W/m2
16:59 79.9 °F 48.2 °F 29.86 in SSW 16.1 mph 8.6 mph 33% 0 in 548.00 W/m2
17:04 79.7 °F 48 °F 29.87 in SSW 21.9 mph 7.7 mph 33% 0 in 568.00 W/m2
17:09 79.5 °F 47.1 °F 29.87 in SSW 16.1 mph 13.1 mph 32% 0 in 172.00 W/m2
17:14 79.1 °F 47.5 °F 29.87 in SW 17.3 mph 10.2 mph 33% 0 in 519.00 W/m2
17:19 79.2 °F 46.8 °F 29.86 in WSW 12.7 mph 12.9 mph 32% 0 in 512.00 W/m2
17:24 79.1 °F 46.7 °F 29.87 in South 15 mph 9.7 mph 32% 0 in 483.00 W/m2
17:29 78.9 °F 47.3 °F 29.87 in South 23 mph 10.2 mph 33% 0 in 475.00 W/m2
17:34 78.5 °F 46.2 °F 29.87 in SSW 18.4 mph 11.5 mph 32% 0 in 454.00 W/m2
17:39 78.3 °F 47.6 °F 29.87 in SSW 18.4 mph 10.2 mph 34% 0 in 417.00 W/m2
17:44 78.2 °F 48.3 °F 29.87 in SW 16.1 mph 8.9 mph 35% 0 in 448.00 W/m2
17:49 77.6 °F 47 °F 29.87 in SSE 12.7 mph 11.3 mph 34% 0 in 176.00 W/m2
17:54 76.7 °F 47.7 °F 29.87 in SSE 18.4 mph 9.1 mph 36% 0 in 396.00 W/m2
17:59 76.1 °F 47.9 °F 29.88 in SSW 17 mph 10.5 mph 37% 0 in 102.00 W/m2
18:04 75.3 °F 47.9 °F 29.87 in SW 11.5 mph 6.3 mph 38% 0 in 109.00 W/m2
18:09 74.9 °F 46.9 °F 29.87 in SSW 13.8 mph 9.2 mph 37% 0 in 127.00 W/m2
18:14 74.6 °F 47.3 °F 29.87 in South 20 mph 9.9 mph 38% 0 in 135.00 W/m2
18:19 74.6 °F 48 °F 29.87 in South 11 mph 5.1 mph 39% 0 in 114.00 W/m2
18:24 74.4 °F 49.8 °F 29.87 in SSW 11.5 mph 6.8 mph 42% 0 in 86.00 W/m2
18:29 74.3 °F 49.7 °F 29.87 in SSW 17 mph 9.3 mph 42% 0 in 79.00 W/m2
18:34 74.3 °F 49.7 °F 29.87 in SSW 18.4 mph 5.7 mph 42% 0 in 69.00 W/m2
18:39 74.2 °F 50.3 °F 29.87 in South 18.4 mph 11.6 mph 43% 0 in 62.00 W/m2
18:44 74 °F 51.3 °F 29.87 in SSW 11 mph 5.3 mph 45% 0 in 63.00 W/m2
18:49 73.8 °F 51.7 °F 29.86 in SSW 9.2 mph 4.6 mph 46% 0 in 51.00 W/m2
18:54 73.7 °F 51.6 °F 29.86 in SSW 11.5 mph 5.8 mph 46% 0 in 49.00 W/m2
18:59 73.5 °F 51.4 °F 29.86 in SW 16.1 mph 7.5 mph 46% 0 in 53.00 W/m2
19:04 73.3 °F 50.7 °F 29.86 in SSE 18.4 mph 6.6 mph 45% 0 in 35.00 W/m2
19:09 73.1 °F 50.5 °F 29.86 in SSW 11.5 mph 6.7 mph 45% 0 in 28.00 W/m2
19:14 73 °F 51 °F 29.86 in SSW 9.2 mph 5.3 mph 46% 0 in 37.00 W/m2
19:19 72.8 °F 50.8 °F 29.86 in SSW 10.4 mph 5.2 mph 46% 0 in 30.00 W/m2
19:24 72.6 °F 51.2 °F 29.86 in South 19.6 mph 10.7 mph 47% 0 in 16.00 W/m2
19:29 72.1 °F 51.3 °F 29.87 in South 15 mph 11 mph 48% 0 in 16.00 W/m2
19:34 71.7 °F 51.5 °F 29.87 in SSE 11.5 mph 6.3 mph 49% 0 in 16.00 W/m2
19:39 71.3 °F 51.1 °F 29.87 in SW 12.7 mph 5.2 mph 49% 0 in 14.00 W/m2
19:44 71.1 °F 51.5 °F 29.87 in South 12.7 mph 7.7 mph 50% 0 in 14.00 W/m2
19:49 71 °F 51.4 °F 29.86 in South 11.5 mph 5.2 mph 50% 0 in 18.00 W/m2
19:54 71 °F 51.4 °F 29.87 in South 10.4 mph 5.4 mph 50% 0 in 14.00 W/m2
19:59 70.8 °F 51.8 °F 29.87 in SSW 10.4 mph 6 mph 51% 0 in 0.00 W/m2
20:04 70.7 °F 51.7 °F 29.86 in SSW 13.8 mph 4.6 mph 51% 0 in 0.00 W/m2
20:09 70.6 °F 51.6 °F 29.86 in South 14 mph 6.9 mph 51% 0 in 0.00 W/m2
20:14 70.4 °F 53.5 °F 29.86 in South 6.9 mph 6.1 mph 55% 0 in 0.00 W/m2
20:19 69.8 °F 53.9 °F 29.86 in SSW 15 mph 6.6 mph 57% 0 in 0.00 W/m2
20:24 69.3 °F 53.4 °F 29.87 in SSW 12.7 mph 6.2 mph 57% 0 in 0.00 W/m2
20:29 69.1 °F 53.2 °F 29.87 in SW 14 mph 10.6 mph 57% 0 in 0.00 W/m2
20:34 69.3 °F 53.4 °F 29.87 in SSW 11.5 mph 8.7 mph 57% 0 in 0.00 W/m2
20:39 69.3 °F 53.4 °F 29.88 in SSW 10.4 mph 6.2 mph 57% 0 in 0.00 W/m2
20:44 69.3 °F 53.9 °F 29.88 in South 13.8 mph 5.2 mph 58% 0 in 0.00 W/m2
20:49 69.3 °F 53.9 °F 29.88 in SW 11.5 mph 5.1 mph 58% 0 in 0.00 W/m2
20:54 69 °F 54.5 °F 29.89 in SSW 15 mph 10 mph 60% 0 in 0.00 W/m2
20:59 68.3 °F 54.8 °F 29.90 in WSW 11.5 mph 7.4 mph 62% 0 in 0.00 W/m2
21:04 67.6 °F 54.6 °F 29.90 in SW 11.5 mph 11.8 mph 63% 0 in 0.00 W/m2
21:09 67.2 °F 54.6 °F 29.90 in SW 14 mph 8 mph 64% 0 in 0.00 W/m2
21:14 66.7 °F 54.1 °F 29.91 in South 20.7 mph 10.6 mph 64% 0 in 0.00 W/m2
21:19 66.3 °F 54.6 °F 29.91 in South 17.3 mph 9.3 mph 66% 0 in 0.00 W/m2
21:24 65.2 °F 55.2 °F 29.92 in SSW 19.6 mph 12.3 mph 70% 0 in 0.00 W/m2
21:29 63.8 °F 55.4 °F 29.91 in SSW 15 mph 10.6 mph 74% 0 in 0.00 W/m2
21:34 63.1 °F 55.8 °F 29.91 in SSW 8.1 mph 5.9 mph 77% 0.01 in 0.00 W/m2
21:39 62.5 °F 55.9 °F 29.91 in SW 8.1 mph 2.7 mph 79% 0.01 in 0.00 W/m2
21:44 62.2 °F 55.6 °F 29.91 in SSW 8.1 mph 1.8 mph 79% 0.01 in 0.00 W/m2
21:49 62 °F 56.1 °F 29.90 in SSW 3.5 mph 2.6 mph 81% 0.02 in 0.00 W/m2
21:54 61.7 °F 56.1 °F 29.89 in SSE 4.6 mph 1.8 mph 82% 0.02 in 0.00 W/m2
21:59 61.5 °F 56.3 °F 29.89 in South 2.3 mph 1.4 mph 83% 0.02 in 0.00 W/m2
22:04 61.3 °F 56.4 °F 29.89 in South 4 mph 1.7 mph 84% 0.02 in 0.00 W/m2
22:09 61.2 °F 56.7 °F 29.89 in South 3.5 mph 1.2 mph 85% 0.02 in 0.00 W/m2
22:14 61.2 °F 57 °F 29.89 in South 5 mph 2.9 mph 86% 0.02 in 0.00 W/m2
22:19 61.2 °F 57 °F 29.89 in South 3.5 mph 2.4 mph 86% 0.02 in 0.00 W/m2
22:24 61.3 °F 57.1 °F 29.89 in South 3.5 mph 1.8 mph 86% 0.02 in 0.00 W/m2
22:29 61.3 °F 57.1 °F 29.90 in South 3.5 mph 3.1 mph 86% 0.02 in 0.00 W/m2
22:34 61.3 °F 57.1 °F 29.89 in South 3.5 mph 2 mph 86% 0.01 in 0.00 W/m2
22:39 61.3 °F 56.8 °F 29.90 in SSW 6 mph 2 mph 85% 0.01 in 0.00 W/m2
22:44 61.4 °F 56.8 °F 29.89 in South 5.8 mph 3.8 mph 85% 0.01 in 0.00 W/m2
22:49 61.5 °F 56.9 °F 29.90 in South 4.6 mph 3.6 mph 85% 0 in 0.00 W/m2
22:54 61.8 °F 56.6 °F 29.89 in SSW 5.8 mph 5.2 mph 83% 0 in 0.00 W/m2
22:59 62.2 °F 56.6 °F 29.89 in South 8.1 mph 6.1 mph 82% 0 in 0.00 W/m2
23:04 62.4 °F 56.5 °F 29.89 in SSW 8.1 mph 5.1 mph 81% 0 in 0.00 W/m2
23:09 62.5 °F 56.6 °F 29.89 in SSE 9.2 mph 4.5 mph 81% 0 in 0.00 W/m2
23:14 62.5 °F 56.6 °F 29.88 in SSE 9.2 mph 4.4 mph 81% 0 in 0.00 W/m2
23:19 62.5 °F 56.6 °F 29.88 in South 8.1 mph 3.6 mph 81% 0 in 0.00 W/m2
23:24 62.5 °F 56.9 °F 29.88 in South 5.8 mph 3.4 mph 82% 0 in 0.00 W/m2
23:29 62.4 °F 56.8 °F 29.88 in SSW 5.8 mph 2.9 mph 82% 0 in 0.00 W/m2
23:34 62.4 °F 56.8 °F 29.88 in SSW 6.9 mph 4.6 mph 82% 0 in 0.00 W/m2
23:39 62.4 °F 56.8 °F 29.88 in South 8.1 mph 4.2 mph 82% 0 in 0.00 W/m2
23:44 62.4 °F 56.8 °F 29.88 in South 5.8 mph 3.2 mph 82% 0 in 0.00 W/m2
23:49 62.3 °F 56.7 °F 29.88 in South 5.8 mph 4.5 mph 82% 0 in 0.00 W/m2
23:54 62.3 °F 56.7 °F 29.87 in South 8.1 mph 5.5 mph 82% 0 in 0.00 W/m2
23:59 62.3 °F 56.7 °F 29.87 in South 9.2 mph 5.3 mph 82% 0 in 0.00 W/m2
Bourbonnais, Illinois, USA
Compliments of Weather Underground - 4 mb